sensor_id;sensor_type;location;lat;lon;timestamp;P1;durP1;ratioP1;P2;durP2;ratioP2
3991;SDS011;2010;48.194;16.394;2024-03-17T00:01:26;0.93;;;0.90;;
3991;SDS011;2010;48.194;16.394;2024-03-17T00:03:54;0.90;;;0.90;;
3991;SDS011;2010;48.194;16.394;2024-03-17T00:06:28;4.40;;;1.00;;
3991;SDS011;2010;48.194;16.394;2024-03-17T00:08:58;1.13;;;0.90;;
3991;SDS011;2010;48.194;16.394;2024-03-17T00:11:30;0.77;;;0.77;;
3991;SDS011;2010;48.194;16.394;2024-03-17T00:14:01;0.97;;;0.97;;
3991;SDS011;2010;48.194;16.394;2024-03-17T00:16:28;1.70;;;1.07;;
3991;SDS011;2010;48.194;16.394;2024-03-17T00:18:56;0.70;;;0.70;;
3991;SDS011;2010;48.194;16.394;2024-03-17T00:21:25;0.70;;;0.70;;
3991;SDS011;2010;48.194;16.394;2024-03-17T00:23:56;1.07;;;0.80;;
3991;SDS011;2010;48.194;16.394;2024-03-17T00:26:23;1.10;;;1.10;;
3991;SDS011;2010;48.194;16.394;2024-03-17T00:28:55;0.83;;;0.83;;
3991;SDS011;2010;48.194;16.394;2024-03-17T00:31:26;1.07;;;1.07;;
3991;SDS011;2010;48.194;16.394;2024-03-17T00:34:02;1.00;;;1.00;;
3991;SDS011;2010;48.194;16.394;2024-03-17T00:36:33;1.47;;;1.10;;
3991;SDS011;2010;48.194;16.394;2024-03-17T00:39:02;2.60;;;1.30;;
3991;SDS011;2010;48.194;16.394;2024-03-17T00:41:30;2.23;;;1.40;;
3991;SDS011;2010;48.194;16.394;2024-03-17T00:43:59;2.90;;;1.80;;
3991;SDS011;2010;48.194;16.394;2024-03-17T00:46:28;1.87;;;1.70;;
3991;SDS011;2010;48.194;16.394;2024-03-17T00:48:56;1.63;;;1.63;;
3991;SDS011;2010;48.194;16.394;2024-03-17T00:51:24;2.13;;;2.03;;
3991;SDS011;2010;48.194;16.394;2024-03-17T00:53:59;1.80;;;1.70;;
3991;SDS011;2010;48.194;16.394;2024-03-17T00:56:27;1.93;;;1.70;;
3991;SDS011;2010;48.194;16.394;2024-03-17T00:58:55;1.80;;;1.70;;
3991;SDS011;2010;48.194;16.394;2024-03-17T01:01:23;1.77;;;1.67;;
3991;SDS011;2010;48.194;16.394;2024-03-17T01:03:51;1.83;;;1.73;;
3991;SDS011;2010;48.194;16.394;2024-03-17T01:06:19;2.13;;;2.03;;
3991;SDS011;2010;48.194;16.394;2024-03-17T01:08:50;1.80;;;1.70;;
3991;SDS011;2010;48.194;16.394;2024-03-17T01:11:24;2.03;;;1.90;;
3991;SDS011;2010;48.194;16.394;2024-03-17T01:13:55;1.80;;;1.70;;
3991;SDS011;2010;48.194;16.394;2024-03-17T01:16:21;2.00;;;1.80;;
3991;SDS011;2010;48.194;16.394;2024-03-17T01:18:50;2.50;;;2.40;;
3991;SDS011;2010;48.194;16.394;2024-03-17T01:21:19;2.43;;;2.00;;
3991;SDS011;2010;48.194;16.394;2024-03-17T01:23:47;2.20;;;2.10;;
3991;SDS011;2010;48.194;16.394;2024-03-17T01:26:19;2.07;;;1.97;;
3991;SDS011;2010;48.194;16.394;2024-03-17T01:28:48;2.40;;;2.30;;
3991;SDS011;2010;48.194;16.394;2024-03-17T01:31:23;3.50;;;3.20;;
3991;SDS011;2010;48.194;16.394;2024-03-17T01:33:53;3.17;;;2.87;;
3991;SDS011;2010;48.194;16.394;2024-03-17T01:36:28;2.93;;;2.73;;
3991;SDS011;2010;48.194;16.394;2024-03-17T01:38:54;6.57;;;3.20;;
3991;SDS011;2010;48.194;16.394;2024-03-17T01:41:26;4.40;;;2.83;;
3991;SDS011;2010;48.194;16.394;2024-03-17T01:43:55;3.30;;;2.50;;
3991;SDS011;2010;48.194;16.394;2024-03-17T01:46:25;2.90;;;2.70;;
3991;SDS011;2010;48.194;16.394;2024-03-17T01:48:52;2.83;;;2.60;;
3991;SDS011;2010;48.194;16.394;2024-03-17T01:51:21;3.80;;;2.90;;
3991;SDS011;2010;48.194;16.394;2024-03-17T01:53:50;3.10;;;2.90;;
3991;SDS011;2010;48.194;16.394;2024-03-17T01:56:21;2.53;;;2.30;;
3991;SDS011;2010;48.194;16.394;2024-03-17T01:58:49;2.67;;;2.47;;
3991;SDS011;2010;48.194;16.394;2024-03-17T02:01:25;2.90;;;2.70;;
3991;SDS011;2010;48.194;16.394;2024-03-17T02:03:53;2.90;;;2.60;;
3991;SDS011;2010;48.194;16.394;2024-03-17T02:06:24;3.50;;;3.20;;
3991;SDS011;2010;48.194;16.394;2024-03-17T02:08:51;4.23;;;3.47;;
3991;SDS011;2010;48.194;16.394;2024-03-17T02:11:26;3.50;;;3.20;;
3991;SDS011;2010;48.194;16.394;2024-03-17T02:13:57;4.47;;;3.73;;
3991;SDS011;2010;48.194;16.394;2024-03-17T02:16:32;4.80;;;3.80;;
3991;SDS011;2010;48.194;16.394;2024-03-17T02:19:02;5.57;;;4.27;;
3991;SDS011;2010;48.194;16.394;2024-03-17T02:21:29;6.80;;;3.77;;
3991;SDS011;2010;48.194;16.394;2024-03-17T02:24:00;4.60;;;4.00;;
3991;SDS011;2010;48.194;16.394;2024-03-17T02:26:30;4.27;;;3.87;;
3991;SDS011;2010;48.194;16.394;2024-03-17T02:28:58;6.27;;;3.50;;
3991;SDS011;2010;48.194;16.394;2024-03-17T02:31:29;4.83;;;3.70;;
3991;SDS011;2010;48.194;16.394;2024-03-17T02:33:55;4.00;;;3.60;;
3991;SDS011;2010;48.194;16.394;2024-03-17T02:36:30;8.40;;;4.17;;
3991;SDS011;2010;48.194;16.394;2024-03-17T02:38:57;6.87;;;4.00;;
3991;SDS011;2010;48.194;16.394;2024-03-17T02:41:48;6.90;;;3.97;;
3991;SDS011;2010;48.194;16.394;2024-03-17T02:44:17;4.20;;;3.73;;
3991;SDS011;2010;48.194;16.394;2024-03-17T02:46:51;7.07;;;3.70;;
3991;SDS011;2010;48.194;16.394;2024-03-17T02:49:21;6.53;;;3.33;;
3991;SDS011;2010;48.194;16.394;2024-03-17T02:51:48;3.97;;;3.57;;
3991;SDS011;2010;48.194;16.394;2024-03-17T02:54:26;5.83;;;3.90;;
3991;SDS011;2010;48.194;16.394;2024-03-17T02:56:57;4.87;;;3.90;;
3991;SDS011;2010;48.194;16.394;2024-03-17T02:59:25;4.50;;;4.10;;
3991;SDS011;2010;48.194;16.394;2024-03-17T03:01:54;4.07;;;3.77;;
3991;SDS011;2010;48.194;16.394;2024-03-17T03:04:25;4.97;;;3.43;;
3991;SDS011;2010;48.194;16.394;2024-03-17T03:07:01;4.10;;;3.70;;
3991;SDS011;2010;48.194;16.394;2024-03-17T03:09:42;5.13;;;3.53;;
3991;SDS011;2010;48.194;16.394;2024-03-17T03:12:10;3.73;;;3.43;;
3991;SDS011;2010;48.194;16.394;2024-03-17T03:14:38;5.93;;;3.63;;
3991;SDS011;2010;48.194;16.394;2024-03-17T03:17:09;5.03;;;3.50;;
3991;SDS011;2010;48.194;16.394;2024-03-17T03:19:37;4.33;;;3.87;;
3991;SDS011;2010;48.194;16.394;2024-03-17T03:22:07;7.10;;;4.60;;
3991;SDS011;2010;48.194;16.394;2024-03-17T03:24:40;5.07;;;4.00;;
3991;SDS011;2010;48.194;16.394;2024-03-17T03:27:11;5.70;;;4.20;;
3991;SDS011;2010;48.194;16.394;2024-03-17T03:29:41;7.30;;;4.40;;
3991;SDS011;2010;48.194;16.394;2024-03-17T03:32:14;4.90;;;4.33;;
3991;SDS011;2010;48.194;16.394;2024-03-17T03:34:44;5.03;;;4.00;;
3991;SDS011;2010;48.194;16.394;2024-03-17T03:37:16;5.50;;;4.20;;
3991;SDS011;2010;48.194;16.394;2024-03-17T03:39:45;4.40;;;3.97;;
3991;SDS011;2010;48.194;16.394;2024-03-17T03:42:22;5.80;;;4.60;;
3991;SDS011;2010;48.194;16.394;2024-03-17T03:44:50;5.00;;;4.60;;
3991;SDS011;2010;48.194;16.394;2024-03-17T03:47:21;8.73;;;4.20;;
3991;SDS011;2010;48.194;16.394;2024-03-17T03:49:49;4.77;;;4.03;;
3991;SDS011;2010;48.194;16.394;2024-03-17T03:52:17;4.00;;;3.40;;
3991;SDS011;2010;48.194;16.394;2024-03-17T03:54:48;4.40;;;3.90;;
3991;SDS011;2010;48.194;16.394;2024-03-17T03:57:21;4.57;;;4.03;;
3991;SDS011;2010;48.194;16.394;2024-03-17T03:59:54;7.80;;;4.83;;
3991;SDS011;2010;48.194;16.394;2024-03-17T04:02:22;5.20;;;4.50;;
3991;SDS011;2010;48.194;16.394;2024-03-17T04:04:56;7.10;;;4.80;;
3991;SDS011;2010;48.194;16.394;2024-03-17T04:07:27;6.20;;;4.80;;
3991;SDS011;2010;48.194;16.394;2024-03-17T04:10:00;5.03;;;4.20;;
3991;SDS011;2010;48.194;16.394;2024-03-17T04:12:31;4.20;;;3.53;;
3991;SDS011;2010;48.194;16.394;2024-03-17T04:15:06;4.43;;;4.03;;
3991;SDS011;2010;48.194;16.394;2024-03-17T04:17:36;6.13;;;4.77;;
3991;SDS011;2010;48.194;16.394;2024-03-17T04:20:14;6.37;;;4.53;;
3991;SDS011;2010;48.194;16.394;2024-03-17T04:22:43;7.10;;;4.83;;
3991;SDS011;2010;48.194;16.394;2024-03-17T04:25:23;4.90;;;4.00;;
3991;SDS011;2010;48.194;16.394;2024-03-17T04:27:54;4.50;;;4.07;;
3991;SDS011;2010;48.194;16.394;2024-03-17T04:30:22;7.10;;;4.87;;
3991;SDS011;2010;48.194;16.394;2024-03-17T04:32:50;4.57;;;4.13;;
3991;SDS011;2010;48.194;16.394;2024-03-17T04:35:18;6.30;;;3.70;;
3991;SDS011;2010;48.194;16.394;2024-03-17T04:37:49;4.63;;;3.90;;
3991;SDS011;2010;48.194;16.394;2024-03-17T04:40:20;7.93;;;4.70;;
3991;SDS011;2010;48.194;16.394;2024-03-17T04:43:00;7.07;;;3.70;;
3991;SDS011;2010;48.194;16.394;2024-03-17T04:45:28;4.30;;;3.80;;
3991;SDS011;2010;48.194;16.394;2024-03-17T04:47:56;4.90;;;3.90;;
3991;SDS011;2010;48.194;16.394;2024-03-17T04:50:25;7.27;;;4.07;;
3991;SDS011;2010;48.194;16.394;2024-03-17T04:52:59;8.47;;;3.80;;
3991;SDS011;2010;48.194;16.394;2024-03-17T04:55:33;4.43;;;3.87;;
3991;SDS011;2010;48.194;16.394;2024-03-17T04:58:04;8.40;;;3.30;;
3991;SDS011;2010;48.194;16.394;2024-03-17T05:00:35;6.93;;;3.40;;
3991;SDS011;2010;48.194;16.394;2024-03-17T05:03:04;4.13;;;3.73;;
3991;SDS011;2010;48.194;16.394;2024-03-17T05:05:40;3.60;;;3.30;;
3991;SDS011;2010;48.194;16.394;2024-03-17T05:08:10;4.23;;;3.27;;
3991;SDS011;2010;48.194;16.394;2024-03-17T05:10:44;6.40;;;3.73;;
3991;SDS011;2010;48.194;16.394;2024-03-17T05:13:15;4.07;;;3.60;;
3991;SDS011;2010;48.194;16.394;2024-03-17T05:15:47;7.47;;;4.37;;
3991;SDS011;2010;48.194;16.394;2024-03-17T05:18:15;4.10;;;3.60;;
3991;SDS011;2010;48.194;16.394;2024-03-17T05:20:43;5.43;;;4.00;;
3991;SDS011;2010;48.194;16.394;2024-03-17T05:23:31;5.47;;;3.90;;
3991;SDS011;2010;48.194;16.394;2024-03-17T05:26:05;6.23;;;4.47;;
3991;SDS011;2010;48.194;16.394;2024-03-17T05:28:36;5.70;;;4.50;;
3991;SDS011;2010;48.194;16.394;2024-03-17T05:31:04;5.60;;;3.73;;
3991;SDS011;2010;48.194;16.394;2024-03-17T05:33:31;4.37;;;3.70;;
3991;SDS011;2010;48.194;16.394;2024-03-17T05:36:05;6.03;;;3.90;;
3991;SDS011;2010;48.194;16.394;2024-03-17T05:38:36;5.73;;;4.33;;
3991;SDS011;2010;48.194;16.394;2024-03-17T05:41:06;5.43;;;4.50;;
3991;SDS011;2010;48.194;16.394;2024-03-17T05:43:40;4.80;;;4.37;;
3991;SDS011;2010;48.194;16.394;2024-03-17T05:46:11;10.10;;;4.83;;
3991;SDS011;2010;48.194;16.394;2024-03-17T05:48:40;5.73;;;3.93;;
3991;SDS011;2010;48.194;16.394;2024-03-17T05:51:09;6.60;;;4.57;;
3991;SDS011;2010;48.194;16.394;2024-03-17T05:53:44;11.20;;;4.87;;
3991;SDS011;2010;48.194;16.394;2024-03-17T05:56:21;4.00;;;3.60;;
3991;SDS011;2010;48.194;16.394;2024-03-17T05:58:53;7.63;;;3.87;;
3991;SDS011;2010;48.194;16.394;2024-03-17T06:01:28;4.83;;;3.30;;
3991;SDS011;2010;48.194;16.394;2024-03-17T06:03:56;12.07;;;4.13;;
3991;SDS011;2010;48.194;16.394;2024-03-17T06:06:27;8.20;;;3.60;;
3991;SDS011;2010;48.194;16.394;2024-03-17T06:09:02;5.93;;;3.80;;
3991;SDS011;2010;48.194;16.394;2024-03-17T06:11:48;3.20;;;2.97;;
3991;SDS011;2010;48.194;16.394;2024-03-17T06:14:16;5.30;;;3.40;;
3991;SDS011;2010;48.194;16.394;2024-03-17T06:16:45;5.23;;;3.43;;
3991;SDS011;2010;48.194;16.394;2024-03-17T06:19:14;5.53;;;3.47;;
3991;SDS011;2010;48.194;16.394;2024-03-17T06:21:44;5.23;;;3.60;;
3991;SDS011;2010;48.194;16.394;2024-03-17T06:24:20;6.03;;;3.63;;
3991;SDS011;2010;48.194;16.394;2024-03-17T06:26:57;8.67;;;3.23;;
3991;SDS011;2010;48.194;16.394;2024-03-17T06:29:26;6.20;;;3.73;;
3991;SDS011;2010;48.194;16.394;2024-03-17T06:31:57;5.30;;;3.30;;
3991;SDS011;2010;48.194;16.394;2024-03-17T06:34:38;7.57;;;3.10;;
3991;SDS011;2010;48.194;16.394;2024-03-17T06:37:07;4.80;;;2.60;;
3991;SDS011;2010;48.194;16.394;2024-03-17T06:39:36;4.57;;;2.97;;
3991;SDS011;2010;48.194;16.394;2024-03-17T06:42:15;5.47;;;3.17;;
3991;SDS011;2010;48.194;16.394;2024-03-17T06:44:50;5.77;;;3.30;;
3991;SDS011;2010;48.194;16.394;2024-03-17T06:47:19;3.73;;;3.10;;
3991;SDS011;2010;48.194;16.394;2024-03-17T06:49:53;6.17;;;3.10;;
3991;SDS011;2010;48.194;16.394;2024-03-17T06:52:24;2.67;;;2.40;;
3991;SDS011;2010;48.194;16.394;2024-03-17T06:54:55;3.37;;;2.87;;
3991;SDS011;2010;48.194;16.394;2024-03-17T06:57:35;4.60;;;2.93;;
3991;SDS011;2010;48.194;16.394;2024-03-17T07:00:14;8.43;;;2.80;;
3991;SDS011;2010;48.194;16.394;2024-03-17T07:02:52;4.80;;;2.90;;
3991;SDS011;2010;48.194;16.394;2024-03-17T07:05:30;3.40;;;2.80;;
3991;SDS011;2010;48.194;16.394;2024-03-17T07:08:03;4.10;;;2.83;;
3991;SDS011;2010;48.194;16.394;2024-03-17T07:10:34;7.07;;;3.30;;
3991;SDS011;2010;48.194;16.394;2024-03-17T07:13:08;4.70;;;2.90;;
3991;SDS011;2010;48.194;16.394;2024-03-17T07:15:36;2.93;;;2.60;;
3991;SDS011;2010;48.194;16.394;2024-03-17T07:18:04;4.57;;;2.70;;
3991;SDS011;2010;48.194;16.394;2024-03-17T07:20:37;6.73;;;2.40;;
3991;SDS011;2010;48.194;16.394;2024-03-17T07:23:06;7.53;;;2.80;;
3991;SDS011;2010;48.194;16.394;2024-03-17T07:25:51;5.00;;;2.70;;
3991;SDS011;2010;48.194;16.394;2024-03-17T07:28:25;7.47;;;3.20;;
3991;SDS011;2010;48.194;16.394;2024-03-17T07:30:53;4.50;;;3.20;;
3991;SDS011;2010;48.194;16.394;2024-03-17T07:33:24;5.80;;;3.67;;
3991;SDS011;2010;48.194;16.394;2024-03-17T07:35:53;5.57;;;3.53;;
3991;SDS011;2010;48.194;16.394;2024-03-17T07:38:31;7.10;;;3.40;;
3991;SDS011;2010;48.194;16.394;2024-03-17T07:41:03;3.17;;;2.37;;
3991;SDS011;2010;48.194;16.394;2024-03-17T07:43:38;4.07;;;3.00;;
3991;SDS011;2010;48.194;16.394;2024-03-17T07:46:09;3.07;;;2.80;;
3991;SDS011;2010;48.194;16.394;2024-03-17T07:48:41;8.17;;;2.90;;
3991;SDS011;2010;48.194;16.394;2024-03-17T07:51:10;6.30;;;4.53;;
3991;SDS011;2010;48.194;16.394;2024-03-17T07:53:38;3.37;;;2.90;;
3991;SDS011;2010;48.194;16.394;2024-03-17T07:56:19;5.50;;;3.17;;
3991;SDS011;2010;48.194;16.394;2024-03-17T07:58:54;4.97;;;3.10;;
3991;SDS011;2010;48.194;16.394;2024-03-17T08:01:21;4.00;;;2.60;;
3991;SDS011;2010;48.194;16.394;2024-03-17T08:03:50;5.40;;;2.80;;
3991;SDS011;2010;48.194;16.394;2024-03-17T08:06:21;2.57;;;2.37;;
3991;SDS011;2010;48.194;16.394;2024-03-17T08:08:58;3.30;;;2.87;;
3991;SDS011;2010;48.194;16.394;2024-03-17T08:11:26;5.60;;;2.67;;
3991;SDS011;2010;48.194;16.394;2024-03-17T08:13:59;4.80;;;2.23;;
3991;SDS011;2010;48.194;16.394;2024-03-17T08:16:31;5.00;;;2.60;;
3991;SDS011;2010;48.194;16.394;2024-03-17T08:19:02;5.80;;;2.93;;
3991;SDS011;2010;48.194;16.394;2024-03-17T08:21:32;3.03;;;2.30;;
3991;SDS011;2010;48.194;16.394;2024-03-17T08:24:00;2.20;;;2.10;;
3991;SDS011;2010;48.194;16.394;2024-03-17T08:26:31;3.13;;;2.53;;
3991;SDS011;2010;48.194;16.394;2024-03-17T08:29:03;4.67;;;2.60;;
3991;SDS011;2010;48.194;16.394;2024-03-17T08:31:33;5.00;;;2.50;;
3991;SDS011;2010;48.194;16.394;2024-03-17T08:34:04;5.73;;;2.73;;
3991;SDS011;2010;48.194;16.394;2024-03-17T08:36:34;4.73;;;2.53;;
3991;SDS011;2010;48.194;16.394;2024-03-17T08:39:05;3.37;;;2.13;;
3991;SDS011;2010;48.194;16.394;2024-03-17T08:41:38;2.30;;;2.10;;
3991;SDS011;2010;48.194;16.394;2024-03-17T08:44:14;4.13;;;2.33;;
3991;SDS011;2010;48.194;16.394;2024-03-17T08:46:42;2.57;;;2.47;;
3991;SDS011;2010;48.194;16.394;2024-03-17T08:49:14;4.50;;;2.63;;
3991;SDS011;2010;48.194;16.394;2024-03-17T08:51:45;9.00;;;3.30;;
3991;SDS011;2010;48.194;16.394;2024-03-17T08:54:14;2.90;;;2.43;;
3991;SDS011;2010;48.194;16.394;2024-03-17T08:56:45;3.67;;;2.60;;
3991;SDS011;2010;48.194;16.394;2024-03-17T08:59:17;2.30;;;2.10;;
3991;SDS011;2010;48.194;16.394;2024-03-17T09:01:51;4.50;;;2.83;;
3991;SDS011;2010;48.194;16.394;2024-03-17T09:04:20;6.70;;;2.37;;
3991;SDS011;2010;48.194;16.394;2024-03-17T09:06:51;7.53;;;3.00;;
3991;SDS011;2010;48.194;16.394;2024-03-17T09:09:20;4.40;;;2.87;;
3991;SDS011;2010;48.194;16.394;2024-03-17T09:11:53;3.73;;;2.47;;
3991;SDS011;2010;48.194;16.394;2024-03-17T09:14:24;2.83;;;2.53;;
3991;SDS011;2010;48.194;16.394;2024-03-17T09:16:59;3.17;;;2.90;;
3991;SDS011;2010;48.194;16.394;2024-03-17T09:19:26;4.13;;;3.13;;
3991;SDS011;2010;48.194;16.394;2024-03-17T09:21:55;4.47;;;3.07;;
3991;SDS011;2010;48.194;16.394;2024-03-17T09:24:28;4.00;;;2.60;;
3991;SDS011;2010;48.194;16.394;2024-03-17T09:26:58;9.27;;;3.07;;
3991;SDS011;2010;48.194;16.394;2024-03-17T09:29:41;2.70;;;2.50;;
3991;SDS011;2010;48.194;16.394;2024-03-17T09:32:14;2.97;;;2.70;;
3991;SDS011;2010;48.194;16.394;2024-03-17T09:34:46;3.80;;;3.40;;
3991;SDS011;2010;48.194;16.394;2024-03-17T09:37:23;5.70;;;3.27;;
3991;SDS011;2010;48.194;16.394;2024-03-17T09:39:54;2.70;;;2.50;;
3991;SDS011;2010;48.194;16.394;2024-03-17T09:42:31;5.00;;;3.20;;
3991;SDS011;2010;48.194;16.394;2024-03-17T09:45:25;2.87;;;2.57;;
3991;SDS011;2010;48.194;16.394;2024-03-17T09:48:03;3.10;;;2.30;;
3991;SDS011;2010;48.194;16.394;2024-03-17T09:50:36;3.50;;;2.77;;
3991;SDS011;2010;48.194;16.394;2024-03-17T09:53:17;2.80;;;2.60;;
3991;SDS011;2010;48.194;16.394;2024-03-17T09:55:57;2.40;;;2.20;;
3991;SDS011;2010;48.194;16.394;2024-03-17T09:58:28;2.90;;;2.43;;
3991;SDS011;2010;48.194;16.394;2024-03-17T10:01:04;3.40;;;2.70;;
3991;SDS011;2010;48.194;16.394;2024-03-17T10:03:41;2.40;;;2.20;;
3991;SDS011;2010;48.194;16.394;2024-03-17T10:06:13;2.90;;;2.30;;
3991;SDS011;2010;48.194;16.394;2024-03-17T10:08:44;3.63;;;2.47;;
3991;SDS011;2010;48.194;16.394;2024-03-17T10:11:22;3.57;;;2.17;;
3991;SDS011;2010;48.194;16.394;2024-03-17T10:13:59;4.00;;;2.23;;
3991;SDS011;2010;48.194;16.394;2024-03-17T10:16:31;3.43;;;2.27;;
3991;SDS011;2010;48.194;16.394;2024-03-17T10:19:09;3.27;;;2.67;;
3991;SDS011;2010;48.194;16.394;2024-03-17T10:21:40;2.40;;;2.10;;
3991;SDS011;2010;48.194;16.394;2024-03-17T10:24:27;2.20;;;2.00;;
3991;SDS011;2010;48.194;16.394;2024-03-17T10:27:08;2.40;;;2.20;;
3991;SDS011;2010;48.194;16.394;2024-03-17T10:29:46;2.77;;;2.30;;
3991;SDS011;2010;48.194;16.394;2024-03-17T10:32:16;3.57;;;2.63;;
3991;SDS011;2010;48.194;16.394;2024-03-17T10:34:52;3.70;;;2.77;;
3991;SDS011;2010;48.194;16.394;2024-03-17T10:37:22;2.70;;;2.47;;
3991;SDS011;2010;48.194;16.394;2024-03-17T10:39:51;2.77;;;2.53;;
3991;SDS011;2010;48.194;16.394;2024-03-17T10:42:26;5.10;;;2.67;;
3991;SDS011;2010;48.194;16.394;2024-03-17T10:44:57;4.83;;;2.00;;
3991;SDS011;2010;48.194;16.394;2024-03-17T10:48:06;2.10;;;2.00;;
3991;SDS011;2010;48.194;16.394;2024-03-17T10:50:36;4.53;;;2.43;;
3991;SDS011;2010;48.194;16.394;2024-03-17T10:53:09;3.77;;;2.00;;
3991;SDS011;2010;48.194;16.394;2024-03-17T10:55:42;2.93;;;2.40;;
3991;SDS011;2010;48.194;16.394;2024-03-17T10:58:32;4.00;;;2.77;;
3991;SDS011;2010;48.194;16.394;2024-03-17T11:01:04;3.53;;;2.50;;
3991;SDS011;2010;48.194;16.394;2024-03-17T11:03:48;3.17;;;2.70;;
3991;SDS011;2010;48.194;16.394;2024-03-17T11:06:23;2.27;;;2.10;;
3991;SDS011;2010;48.194;16.394;2024-03-17T11:08:56;1.83;;;1.67;;
3991;SDS011;2010;48.194;16.394;2024-03-17T11:11:37;2.83;;;2.37;;
3991;SDS011;2010;48.194;16.394;2024-03-17T11:14:18;3.27;;;2.13;;
3991;SDS011;2010;48.194;16.394;2024-03-17T11:16:48;2.47;;;2.13;;
3991;SDS011;2010;48.194;16.394;2024-03-17T11:19:27;5.03;;;2.33;;
3991;SDS011;2010;48.194;16.394;2024-03-17T11:21:56;2.50;;;2.30;;
3991;SDS011;2010;48.194;16.394;2024-03-17T11:24:27;2.70;;;2.50;;
3991;SDS011;2010;48.194;16.394;2024-03-17T11:26:54;4.83;;;2.13;;
3991;SDS011;2010;48.194;16.394;2024-03-17T11:29:27;5.63;;;2.00;;
3991;SDS011;2010;48.194;16.394;2024-03-17T11:37:43;2.47;;;1.80;;
3991;SDS011;2010;48.194;16.394;2024-03-17T11:43:03;2.97;;;1.80;;
3991;SDS011;2010;48.194;16.394;2024-03-17T11:45:34;2.00;;;1.80;;
3991;SDS011;2010;48.194;16.394;2024-03-17T11:48:06;5.50;;;2.23;;
3991;SDS011;2010;48.194;16.394;2024-03-17T11:50:43;2.83;;;2.43;;
3991;SDS011;2010;48.194;16.394;2024-03-17T11:53:15;3.33;;;2.47;;
3991;SDS011;2010;48.194;16.394;2024-03-17T11:55:47;2.07;;;1.90;;
3991;SDS011;2010;48.194;16.394;2024-03-17T11:58:17;1.90;;;1.80;;
3991;SDS011;2010;48.194;16.394;2024-03-17T12:00:51;3.30;;;1.90;;
3991;SDS011;2010;48.194;16.394;2024-03-17T12:03:19;4.90;;;1.80;;
3991;SDS011;2010;48.194;16.394;2024-03-17T12:05:55;2.60;;;1.97;;
3991;SDS011;2010;48.194;16.394;2024-03-17T12:08:23;2.50;;;1.93;;
3991;SDS011;2010;48.194;16.394;2024-03-17T12:10:55;2.07;;;1.93;;
3991;SDS011;2010;48.194;16.394;2024-03-17T12:13:32;1.90;;;1.80;;
3991;SDS011;2010;48.194;16.394;2024-03-17T12:16:10;3.10;;;1.93;;
3991;SDS011;2010;48.194;16.394;2024-03-17T12:19:05;2.90;;;2.13;;
3991;SDS011;2010;48.194;16.394;2024-03-17T12:21:40;2.70;;;2.03;;
3991;SDS011;2010;48.194;16.394;2024-03-17T12:24:11;2.37;;;2.17;;
3991;SDS011;2010;48.194;16.394;2024-03-17T12:26:46;1.70;;;1.60;;
3991;SDS011;2010;48.194;16.394;2024-03-17T12:29:21;2.03;;;1.80;;
3991;SDS011;2010;48.194;16.394;2024-03-17T12:31:53;1.80;;;1.70;;
3991;SDS011;2010;48.194;16.394;2024-03-17T12:34:28;3.53;;;2.50;;
3991;SDS011;2010;48.194;16.394;2024-03-17T12:37:04;1.77;;;1.50;;
3991;SDS011;2010;48.194;16.394;2024-03-17T12:39:32;2.50;;;2.03;;
3991;SDS011;2010;48.194;16.394;2024-03-17T12:42:05;1.87;;;1.70;;
3991;SDS011;2010;48.194;16.394;2024-03-17T12:44:56;1.60;;;1.50;;
3991;SDS011;2010;48.194;16.394;2024-03-17T12:47:35;3.00;;;2.13;;
3991;SDS011;2010;48.194;16.394;2024-03-17T12:50:10;2.03;;;1.80;;
3991;SDS011;2010;48.194;16.394;2024-03-17T12:52:51;4.10;;;2.17;;
3991;SDS011;2010;48.194;16.394;2024-03-17T12:55:23;5.03;;;1.70;;
3991;SDS011;2010;48.194;16.394;2024-03-17T12:58:10;3.73;;;1.50;;
3991;SDS011;2010;48.194;16.394;2024-03-17T13:01:00;3.70;;;2.07;;
3991;SDS011;2010;48.194;16.394;2024-03-17T13:03:30;2.50;;;1.47;;
3991;SDS011;2010;48.194;16.394;2024-03-17T13:06:22;2.07;;;1.87;;
3991;SDS011;2010;48.194;16.394;2024-03-17T13:08:58;1.80;;;1.70;;
3991;SDS011;2010;48.194;16.394;2024-03-17T13:11:33;3.37;;;2.17;;
3991;SDS011;2010;48.194;16.394;2024-03-17T13:14:05;1.87;;;1.77;;
3991;SDS011;2010;48.194;16.394;2024-03-17T13:16:43;3.13;;;1.70;;
3991;SDS011;2010;48.194;16.394;2024-03-17T13:19:22;3.90;;;2.27;;
3991;SDS011;2010;48.194;16.394;2024-03-17T13:21:50;2.00;;;1.90;;
3991;SDS011;2010;48.194;16.394;2024-03-17T13:24:32;3.87;;;2.40;;
3991;SDS011;2010;48.194;16.394;2024-03-17T13:27:02;3.87;;;2.17;;
3991;SDS011;2010;48.194;16.394;2024-03-17T13:29:34;1.80;;;1.70;;
3991;SDS011;2010;48.194;16.394;2024-03-17T13:32:06;3.93;;;2.00;;
3991;SDS011;2010;48.194;16.394;2024-03-17T13:34:41;2.00;;;1.47;;
3991;SDS011;2010;48.194;16.394;2024-03-17T13:37:10;2.90;;;2.00;;
3991;SDS011;2010;48.194;16.394;2024-03-17T13:39:40;2.10;;;1.60;;
3991;SDS011;2010;48.194;16.394;2024-03-17T13:42:08;1.63;;;1.53;;
3991;SDS011;2010;48.194;16.394;2024-03-17T13:44:38;1.77;;;1.63;;
3991;SDS011;2010;48.194;16.394;2024-03-17T13:47:05;2.03;;;1.80;;
3991;SDS011;2010;48.194;16.394;2024-03-17T13:49:36;3.53;;;1.87;;
3991;SDS011;2010;48.194;16.394;2024-03-17T13:52:12;4.53;;;1.80;;
3991;SDS011;2010;48.194;16.394;2024-03-17T13:54:57;4.87;;;2.37;;
3991;SDS011;2010;48.194;16.394;2024-03-17T13:57:28;2.00;;;1.80;;
3991;SDS011;2010;48.194;16.394;2024-03-17T14:00:01;2.30;;;2.00;;
3991;SDS011;2010;48.194;16.394;2024-03-17T14:02:42;3.47;;;2.10;;
3991;SDS011;2010;48.194;16.394;2024-03-17T14:05:11;3.00;;;1.80;;
3991;SDS011;2010;48.194;16.394;2024-03-17T14:07:39;3.67;;;2.03;;
3991;SDS011;2010;48.194;16.394;2024-03-17T14:10:10;3.47;;;2.33;;
3991;SDS011;2010;48.194;16.394;2024-03-17T14:12:47;1.80;;;1.70;;
3991;SDS011;2010;48.194;16.394;2024-03-17T14:15:19;4.30;;;1.93;;
3991;SDS011;2010;48.194;16.394;2024-03-17T14:17:50;2.80;;;2.10;;
3991;SDS011;2010;48.194;16.394;2024-03-17T14:20:19;4.20;;;1.80;;
3991;SDS011;2010;48.194;16.394;2024-03-17T14:22:48;1.83;;;1.60;;
3991;SDS011;2010;48.194;16.394;2024-03-17T14:25:31;1.50;;;1.33;;
3991;SDS011;2010;48.194;16.394;2024-03-17T14:28:03;2.57;;;1.60;;
3991;SDS011;2010;48.194;16.394;2024-03-17T14:30:36;3.60;;;1.90;;
3991;SDS011;2010;48.194;16.394;2024-03-17T14:33:04;2.13;;;1.60;;
3991;SDS011;2010;48.194;16.394;2024-03-17T14:35:35;2.60;;;2.27;;
3991;SDS011;2010;48.194;16.394;2024-03-17T14:38:07;1.67;;;1.57;;
3991;SDS011;2010;48.194;16.394;2024-03-17T14:40:38;5.07;;;2.00;;
3991;SDS011;2010;48.194;16.394;2024-03-17T14:43:14;2.20;;;1.80;;
3991;SDS011;2010;48.194;16.394;2024-03-17T14:45:47;1.80;;;1.53;;
3991;SDS011;2010;48.194;16.394;2024-03-17T14:48:18;1.67;;;1.57;;
3991;SDS011;2010;48.194;16.394;2024-03-17T14:50:47;3.30;;;1.97;;
3991;SDS011;2010;48.194;16.394;2024-03-17T14:53:14;3.03;;;1.70;;
3991;SDS011;2010;48.194;16.394;2024-03-17T14:55:50;2.17;;;1.70;;
3991;SDS011;2010;48.194;16.394;2024-03-17T14:58:20;4.07;;;1.63;;
3991;SDS011;2010;48.194;16.394;2024-03-17T15:00:50;1.60;;;1.50;;
3991;SDS011;2010;48.194;16.394;2024-03-17T15:03:18;1.63;;;1.53;;
3991;SDS011;2010;48.194;16.394;2024-03-17T15:05:47;2.70;;;1.60;;
3991;SDS011;2010;48.194;16.394;2024-03-17T15:08:15;4.00;;;1.40;;
3991;SDS011;2010;48.194;16.394;2024-03-17T15:10:46;1.37;;;1.20;;
3991;SDS011;2010;48.194;16.394;2024-03-17T15:13:15;2.03;;;1.50;;
3991;SDS011;2010;48.194;16.394;2024-03-17T15:15:49;1.67;;;1.57;;
3991;SDS011;2010;48.194;16.394;2024-03-17T15:18:21;1.37;;;1.10;;
3991;SDS011;2010;48.194;16.394;2024-03-17T15:20:51;2.57;;;1.80;;
3991;SDS011;2010;48.194;16.394;2024-03-17T15:23:31;1.70;;;1.60;;
3991;SDS011;2010;48.194;16.394;2024-03-17T15:26:01;4.43;;;1.40;;
3991;SDS011;2010;48.194;16.394;2024-03-17T15:29:03;1.30;;;1.20;;
3991;SDS011;2010;48.194;16.394;2024-03-17T15:31:32;3.00;;;1.37;;
3991;SDS011;2010;48.194;16.394;2024-03-17T15:34:09;2.03;;;1.67;;
3991;SDS011;2010;48.194;16.394;2024-03-17T15:37:04;2.33;;;1.60;;
3991;SDS011;2010;48.194;16.394;2024-03-17T15:39:34;3.07;;;1.50;;
3991;SDS011;2010;48.194;16.394;2024-03-17T15:42:06;1.67;;;1.40;;